createdAt,value
2023-04-26T00:00:06.320Z,64.66
2023-04-26T00:02:34.540Z,64.63
2023-04-26T00:05:04.246Z,64.40
2023-04-26T00:07:32.416Z,64.64
2023-04-26T00:10:00.383Z,64.10
2023-04-26T00:12:28.753Z,63.78
2023-04-26T00:14:56.721Z,63.86
2023-04-26T00:17:26.447Z,64.16
2023-04-26T00:19:54.385Z,63.85
2023-04-26T00:22:22.331Z,64.58
2023-04-26T00:24:50.337Z,65.09
2023-04-26T00:27:18.461Z,65.73
2023-04-26T00:29:46.424Z,65.27
2023-04-26T00:32:14.702Z,65.67
2023-04-26T00:34:44.075Z,66.08
2023-04-26T00:37:12.037Z,65.64
2023-04-26T00:39:40.006Z,64.94
2023-04-26T00:42:08.015Z,65.49
2023-04-26T00:44:36.455Z,65.32
2023-04-26T00:47:04.574Z,65.27
2023-04-26T00:49:32.607Z,65.10
2023-04-26T00:52:02.145Z,65.16
2023-04-26T00:54:30.331Z,64.90
2023-04-26T00:56:58.844Z,64.73
2023-04-26T00:59:28.211Z,64.88
2023-04-26T01:01:57.720Z,64.92
2023-04-26T01:04:27.609Z,64.73
2023-04-26T01:06:56.495Z,64.54
2023-04-26T01:09:25.807Z,64.67
2023-04-26T01:11:58.621Z,64.98
2023-04-26T01:14:27.170Z,64.75
2023-04-26T01:16:55.599Z,65.13
2023-04-26T01:19:23.718Z,64.82
2023-04-26T01:21:54.636Z,64.84
2023-04-26T01:24:23.981Z,65.29
2023-04-26T01:26:52.106Z,65.12
2023-04-26T01:29:22.380Z,65.27
2023-04-26T01:31:50.478Z,65.05
2023-04-26T01:34:18.513Z,64.97
2023-04-26T01:36:46.499Z,65.08
2023-04-26T01:39:14.519Z,64.92
2023-04-26T01:41:44.005Z,64.69
2023-04-26T01:44:11.972Z,63.79
2023-04-26T01:46:40.020Z,63.76
2023-04-26T01:49:08.263Z,64.05
2023-04-26T01:51:36.363Z,64.59
2023-04-26T01:54:04.470Z,64.78
2023-04-26T01:56:32.424Z,65.33
2023-04-26T01:59:01.859Z,65.27
2023-04-26T02:01:29.895Z,65.10
2023-04-26T02:03:57.923Z,65.21
2023-04-26T02:06:26.559Z,64.84
2023-04-26T02:08:55.589Z,64.78
2023-04-26T02:11:24.687Z,65.25
2023-04-26T02:13:52.738Z,65.24
2023-04-26T02:16:22.545Z,65.28
2023-04-26T02:18:51.012Z,65.54
2023-04-26T02:21:19.434Z,65.82
2023-04-26T02:23:47.450Z,66.19
2023-04-26T02:26:15.711Z,66.20
2023-04-26T02:28:43.695Z,66.23
2023-04-26T02:31:14.803Z,67.07
2023-04-26T02:33:44.331Z,67.43
2023-04-26T02:36:12.300Z,67.91
2023-04-26T02:38:41.116Z,67.96
2023-04-26T02:41:09.054Z,68.22
2023-04-26T02:43:37.240Z,67.64
2023-04-26T02:46:08.486Z,67.62
2023-04-26T02:48:36.968Z,67.18
2023-04-26T02:51:07.170Z,67.46
2023-04-26T02:53:35.249Z,67.26
2023-04-26T02:56:03.170Z,67.49
2023-04-26T02:58:31.261Z,66.96
2023-04-26T03:01:01.320Z,67.05
2023-04-26T03:03:31.021Z,66.62
2023-04-26T03:05:59.274Z,66.87
2023-04-26T03:08:28.852Z,66.54
2023-04-26T03:10:56.833Z,66.78
2023-04-26T03:13:24.872Z,66.97
2023-04-26T03:15:53.760Z,67.85
2023-04-26T03:18:24.860Z,67.18
2023-04-26T03:20:54.040Z,67.33
2023-04-26T03:23:24.435Z,67.59
2023-04-26T03:25:53.824Z,68.13
2023-04-26T03:28:21.819Z,69.74
2023-04-26T03:30:50.400Z,69.15
2023-04-26T03:33:18.409Z,68.95
2023-04-26T03:35:49.634Z,69.25
2023-04-26T03:38:20.366Z,69.07
2023-04-26T03:40:48.397Z,68.46
2023-04-26T03:43:20.691Z,68.15
2023-04-26T03:45:50.117Z,67.94
2023-04-26T03:48:18.312Z,67.89
2023-04-26T03:50:47.008Z,68.06
2023-04-26T03:53:14.985Z,67.73
2023-04-26T03:55:46.059Z,68.14
2023-04-26T03:58:14.190Z,67.68
2023-04-26T04:00:43.683Z,67.77
2023-04-26T04:03:11.894Z,67.69
2023-04-26T04:05:40.365Z,67.77
2023-04-26T04:08:08.366Z,67.95
2023-04-26T04:10:37.056Z,67.81
2023-04-26T04:13:05.290Z,68.66
2023-04-26T04:15:33.306Z,68.61
2023-04-26T04:18:02.681Z,68.38
2023-04-26T04:20:31.195Z,68.83
2023-04-26T04:22:59.302Z,69.79
2023-04-26T04:25:27.222Z,69.24
2023-04-26T04:27:55.183Z,69.08
2023-04-26T04:30:23.158Z,69.10
2023-04-26T04:32:53.740Z,68.77
2023-04-26T04:35:25.488Z,69.55
2023-04-26T04:37:53.504Z,69.96
2023-04-26T04:40:21.500Z,70.19
2023-04-26T04:42:50.121Z,70.88
2023-04-26T04:45:19.089Z,71.64
2023-04-26T04:47:47.587Z,71.46
2023-04-26T04:50:16.059Z,71.05
2023-04-26T04:52:45.547Z,70.43
2023-04-26T04:55:13.561Z,70.18
2023-04-26T04:57:43.090Z,69.74
2023-04-26T05:00:13.131Z,69.49
2023-04-26T05:02:41.273Z,70.31
2023-04-26T05:05:11.165Z,70.70
2023-04-26T05:07:39.326Z,70.53
2023-04-26T05:10:09.610Z,70.31
2023-04-26T05:12:37.586Z,70.20
2023-04-26T05:15:06.426Z,70.09
2023-04-26T05:17:34.826Z,70.76
2023-04-26T05:20:08.020Z,70.89
2023-04-26T05:22:37.101Z,70.28
2023-04-26T05:25:05.666Z,70.30
2023-04-26T05:27:35.273Z,70.16
2023-04-26T05:30:03.513Z,69.92
2023-04-26T05:32:31.653Z,69.74
2023-04-26T05:34:59.860Z,69.84
2023-04-26T05:37:27.784Z,69.42
2023-04-26T05:39:55.785Z,69.29
2023-04-26T05:42:23.929Z,69.81
2023-04-26T05:44:57.994Z,69.14
2023-04-26T05:47:26.073Z,68.47
2023-04-26T05:49:54.328Z,68.28
2023-04-26T05:52:22.303Z,67.79
2023-04-26T05:54:50.320Z,67.64
2023-04-26T05:57:19.149Z,67.08
2023-04-26T05:59:48.380Z,66.73
2023-04-26T06:02:17.992Z,65.91
2023-04-26T06:04:46.423Z,65.32
2023-04-26T06:07:14.812Z,64.83
2023-04-26T06:09:43.086Z,64.78
2023-04-26T06:12:11.326Z,64.60
2023-04-26T06:14:39.285Z,64.19
2023-04-26T06:17:07.399Z,63.73
2023-04-26T06:19:36.924Z,62.77
2023-04-26T06:22:04.923Z,62.48
2023-04-26T06:24:32.857Z,61.31
2023-04-26T06:27:00.837Z,58.17
2023-04-26T06:29:29.498Z,57.70
2023-04-26T06:31:57.510Z,57.37
2023-04-26T06:34:25.627Z,56.52
2023-04-26T06:36:55.031Z,55.03
2023-04-26T06:39:23.005Z,55.29
2023-04-26T06:41:52.513Z,55.69
2023-04-26T06:44:20.655Z,56.36
2023-04-26T06:46:49.497Z,57.33
2023-04-26T06:49:17.455Z,58.20
2023-04-26T06:51:54.262Z,58.57
2023-04-26T06:54:22.458Z,57.92
2023-04-26T06:56:50.442Z,55.60
2023-04-26T06:59:18.445Z,53.71
2023-04-26T07:01:46.411Z,52.01
2023-04-26T07:04:15.392Z,50.94
2023-04-26T07:06:43.608Z,50.62
2023-04-26T07:09:13.303Z,51.14
2023-04-26T07:11:41.540Z,52.41
2023-04-26T07:14:09.539Z,52.53
2023-04-26T07:16:37.557Z,52.26
2023-04-26T07:19:06.866Z,52.45
2023-04-26T07:21:34.851Z,52.66
2023-04-26T07:24:03.171Z,52.56
2023-04-26T07:26:32.610Z,52.26
2023-04-26T07:29:01.055Z,51.73
2023-04-26T07:31:32.818Z,50.50
2023-04-26T07:34:00.896Z,50.94
2023-04-26T07:36:28.988Z,50.77
2023-04-26T07:38:57.045Z,49.85
2023-04-26T07:41:25.019Z,49.35
2023-04-26T07:43:54.561Z,48.79
2023-04-26T07:46:22.801Z,49.75
2023-04-26T07:48:50.867Z,49.88
2023-04-26T07:51:18.859Z,50.25
2023-04-26T07:53:46.827Z,50.41
2023-04-26T07:56:15.465Z,50.80
2023-04-26T07:58:43.433Z,51.41
2023-04-26T08:01:13.688Z,51.41
2023-04-26T08:03:42.666Z,50.89
2023-04-26T08:06:11.069Z,50.93
2023-04-26T08:08:45.040Z,51.62
2023-04-26T08:11:13.430Z,54.03
2023-04-26T08:13:41.453Z,54.21
2023-04-26T08:16:09.698Z,54.99
2023-04-26T08:18:39.145Z,53.83
2023-04-26T08:21:07.824Z,53.85
2023-04-26T08:23:37.529Z,54.18
2023-04-26T08:26:06.521Z,53.92
2023-04-26T08:28:35.858Z,54.58
2023-04-26T08:31:04.031Z,53.60
2023-04-26T08:33:32.295Z,54.61
2023-04-26T08:36:02.388Z,54.95
2023-04-26T08:38:30.975Z,54.88
2023-04-26T08:41:01.978Z,54.69
2023-04-26T08:43:30.651Z,54.82
2023-04-26T08:46:00.513Z,54.18
2023-04-26T08:48:33.841Z,54.95
2023-04-26T08:51:04.568Z,55.82
2023-04-26T08:53:35.891Z,57.27
2023-04-26T08:56:06.329Z,56.42
2023-04-26T08:58:34.474Z,55.74
2023-04-26T09:01:04.175Z,55.28
2023-04-26T09:03:32.447Z,55.71
2023-04-26T09:06:03.804Z,55.06
2023-04-26T09:08:37.754Z,53.98
2023-04-26T09:11:05.820Z,54.84
2023-04-26T09:13:33.901Z,56.05
2023-04-26T09:16:04.084Z,55.39
2023-04-26T09:18:34.022Z,54.98
2023-04-26T09:21:07.183Z,53.80
2023-04-26T09:23:36.909Z,53.84
2023-04-26T09:26:18.292Z,52.91
2023-04-26T09:28:46.699Z,52.59
2023-04-26T09:31:38.476Z,51.66
2023-04-26T09:34:06.639Z,50.52
2023-04-26T09:36:34.627Z,50.36
2023-04-26T09:39:04.307Z,51.52
2023-04-26T09:41:44.961Z,50.77
2023-04-26T09:44:23.259Z,51.81
2023-04-26T09:47:05.118Z,52.20
2023-04-26T09:49:34.235Z,52.40
2023-04-26T09:52:03.996Z,52.06
2023-04-26T09:54:44.549Z,52.01
2023-04-26T09:57:13.664Z,51.42
2023-04-26T09:59:46.702Z,51.78
2023-04-26T10:02:22.140Z,50.97
2023-04-26T10:04:51.591Z,49.55
2023-04-26T10:07:21.133Z,48.54
2023-04-26T10:09:51.284Z,47.78
2023-04-26T10:12:21.262Z,48.57
2023-04-26T10:14:49.815Z,48.38
2023-04-26T10:17:19.912Z,49.55
2023-04-26T10:19:53.007Z,48.46
2023-04-26T10:22:25.862Z,47.56
2023-04-26T10:24:57.042Z,46.78
2023-04-26T10:27:51.447Z,47.14
2023-04-26T10:30:24.352Z,47.11
2023-04-26T10:33:16.534Z,48.02
2023-04-26T10:36:13.509Z,48.23
2023-04-26T10:38:43.495Z,48.72
2023-04-26T10:41:40.041Z,49.48
2023-04-26T10:44:45.889Z,47.78
2023-04-26T10:47:29.581Z,48.38
2023-04-26T10:50:06.154Z,47.53
2023-04-26T10:52:34.890Z,46.86
2023-04-26T10:55:03.722Z,47.77
2023-04-26T10:57:53.959Z,47.12
2023-04-26T11:00:32.301Z,47.63
2023-04-26T11:03:05.213Z,48.23
2023-04-26T11:05:56.041Z,47.39
2023-04-26T11:08:28.412Z,47.21
2023-04-26T11:11:06.842Z,47.48
2023-04-26T11:13:37.518Z,46.28
2023-04-26T11:16:07.200Z,46.59
2023-04-26T11:18:36.498Z,46.58
2023-04-26T11:21:05.917Z,48.22
2023-04-26T11:23:35.656Z,49.45
2023-04-26T11:26:05.054Z,49.32
2023-04-26T11:28:34.458Z,49.51
2023-04-26T11:31:04.626Z,49.28
2023-04-26T11:33:34.309Z,48.68
2023-04-26T11:36:02.581Z,50.33
2023-04-26T11:38:31.103Z,50.33
2023-04-26T11:41:00.844Z,48.97
2023-04-26T11:43:36.757Z,48.65
2023-04-26T11:46:07.564Z,46.97
2023-04-26T11:48:38.201Z,46.31
2023-04-26T11:51:07.889Z,46.03
2023-04-26T11:53:40.565Z,46.01
2023-04-26T11:56:18.185Z,45.28
2023-04-26T11:58:47.534Z,45.72
2023-04-26T12:01:24.320Z,46.32
2023-04-26T12:03:54.412Z,48.07
2023-04-26T12:06:30.514Z,47.63
2023-04-26T12:08:58.653Z,46.29
2023-04-26T12:11:27.437Z,46.76
2023-04-26T12:13:55.384Z,46.12
2023-04-26T12:16:26.593Z,47.09
2023-04-26T12:18:56.962Z,46.45
2023-04-26T12:21:28.089Z,46.72
2023-04-26T12:23:57.062Z,47.96
2023-04-26T12:26:42.934Z,47.50
2023-04-26T12:29:11.016Z,48.54
2023-04-26T12:31:40.617Z,50.06
2023-04-26T12:34:09.202Z,49.23
2023-04-26T12:36:37.196Z,51.12
2023-04-26T12:39:05.872Z,52.61
2023-04-26T12:41:33.972Z,51.05
2023-04-26T12:44:02.062Z,51.05
2023-04-26T12:46:30.035Z,50.20
2023-04-26T12:48:59.613Z,48.99
2023-04-26T12:51:27.652Z,48.81
2023-04-26T12:53:55.589Z,47.11
2023-04-26T12:56:23.622Z,47.13
2023-04-26T12:58:51.794Z,46.77
2023-04-26T13:01:19.814Z,46.87
2023-04-26T13:03:48.063Z,46.03
2023-04-26T13:06:17.577Z,45.82
2023-04-26T13:08:45.583Z,45.83
2023-04-26T13:11:13.842Z,44.50
2023-04-26T13:13:44.578Z,44.42
2023-04-26T13:16:13.548Z,43.82
2023-04-26T13:18:42.946Z,44.13
2023-04-26T13:21:11.261Z,43.85
2023-04-26T13:23:41.513Z,42.04
2023-04-26T13:26:09.943Z,42.54
2023-04-26T13:28:38.510Z,43.50
2023-04-26T13:31:07.887Z,43.46
2023-04-26T13:33:36.429Z,44.67
2023-04-26T13:36:04.939Z,44.31
2023-04-26T13:38:33.269Z,43.95
2023-04-26T13:41:03.836Z,43.66
2023-04-26T13:43:31.816Z,44.57
2023-04-26T13:46:00.361Z,45.91
2023-04-26T13:48:28.625Z,47.32
2023-04-26T13:50:56.827Z,47.53
2023-04-26T13:53:25.026Z,47.08
2023-04-26T13:55:53.007Z,46.99
2023-04-26T13:58:22.407Z,46.30
2023-04-26T14:00:50.459Z,45.99
2023-04-26T14:03:18.617Z,46.38
2023-04-26T14:05:46.720Z,47.09
2023-04-26T14:08:17.206Z,47.52
2023-04-26T14:10:45.658Z,47.61
2023-04-26T14:13:13.801Z,48.10
2023-04-26T14:15:43.513Z,47.48
2023-04-26T14:18:11.650Z,47.78
2023-04-26T14:20:39.636Z,47.91
2023-04-26T14:23:07.650Z,47.22
2023-04-26T14:25:35.658Z,46.43
2023-04-26T14:28:04.194Z,46.29
2023-04-26T14:30:32.300Z,45.67
2023-04-26T14:33:01.700Z,45.18
2023-04-26T14:35:29.675Z,46.75
2023-04-26T14:37:57.665Z,47.36
2023-04-26T14:40:25.652Z,46.74
2023-04-26T14:42:53.632Z,47.39
2023-04-26T14:45:27.813Z,46.79
2023-04-26T14:48:03.852Z,46.29
2023-04-26T14:50:31.928Z,45.43
2023-04-26T14:53:00.201Z,45.82
2023-04-26T14:55:28.451Z,45.32
2023-04-26T14:57:56.444Z,44.93
2023-04-26T15:00:25.593Z,45.67
2023-04-26T15:02:53.707Z,45.37
2023-04-26T15:05:24.293Z,45.08
2023-04-26T15:07:52.440Z,45.92
2023-04-26T15:10:20.547Z,45.10
2023-04-26T15:12:48.529Z,45.57
2023-04-26T15:15:16.581Z,46.43
2023-04-26T15:17:44.645Z,47.81
2023-04-26T15:20:13.339Z,48.44
2023-04-26T15:22:43.062Z,47.57
2023-04-26T15:25:12.235Z,47.07
2023-04-26T15:27:40.382Z,47.65
2023-04-26T15:30:09.882Z,48.10
2023-04-26T15:32:40.282Z,47.65
2023-04-26T15:35:14.045Z,47.62
2023-04-26T15:37:44.217Z,47.42
2023-04-26T15:40:13.104Z,47.66
2023-04-26T15:42:41.481Z,48.58
2023-04-26T15:45:10.424Z,49.43
2023-04-26T15:47:38.502Z,49.07
2023-04-26T15:50:08.079Z,49.71
2023-04-26T15:52:38.920Z,49.23
2023-04-26T15:55:09.850Z,47.79
2023-04-26T15:57:38.416Z,48.21
2023-04-26T16:00:08.914Z,47.20
2023-04-26T16:02:37.317Z,48.27
2023-04-26T16:05:08.362Z,47.93
2023-04-26T16:07:38.772Z,48.22
2023-04-26T16:10:10.431Z,47.96
2023-04-26T16:12:39.782Z,47.53
2023-04-26T16:15:09.416Z,47.11
2023-04-26T16:17:38.574Z,47.26
2023-04-26T16:20:08.305Z,46.43
2023-04-26T16:22:37.288Z,46.86
2023-04-26T16:25:06.981Z,47.12
2023-04-26T16:27:36.855Z,47.69
2023-04-26T16:30:05.716Z,47.48
2023-04-26T16:32:34.222Z,47.66
2023-04-26T16:35:02.715Z,47.48
2023-04-26T16:37:31.434Z,47.50
2023-04-26T16:39:59.414Z,48.06
2023-04-26T16:42:27.477Z,47.38
2023-04-26T16:44:57.373Z,47.79
2023-04-26T16:47:25.510Z,48.53
2023-04-26T16:49:53.429Z,48.34
2023-04-26T16:52:21.488Z,48.75
2023-04-26T16:54:49.425Z,47.63
2023-04-26T16:57:18.037Z,47.84
2023-04-26T16:59:46.380Z,47.45
2023-04-26T17:02:15.907Z,46.92
2023-04-26T17:04:44.486Z,47.63
2023-04-26T17:07:13.004Z,48.78
2023-04-26T17:09:41.192Z,48.57
2023-04-26T17:12:09.160Z,48.28
2023-04-26T17:14:37.103Z,49.16
2023-04-26T17:17:05.838Z,50.21
2023-04-26T17:19:35.135Z,49.74
2023-04-26T17:22:03.141Z,49.12
2023-04-26T17:24:31.279Z,49.62
2023-04-26T17:26:59.320Z,50.44
2023-04-26T17:29:27.369Z,49.82
2023-04-26T17:31:55.499Z,49.84
2023-04-26T17:34:23.480Z,50.08
2023-04-26T17:36:53.259Z,49.49
2023-04-26T17:39:21.310Z,50.54
2023-04-26T17:41:51.326Z,51.17
2023-04-26T17:44:19.277Z,50.69
2023-04-26T17:46:47.186Z,50.97
2023-04-26T17:49:15.192Z,51.01
2023-04-26T17:51:43.174Z,50.63
2023-04-26T17:54:13.090Z,50.84
2023-04-26T17:56:41.097Z,50.59
2023-04-26T17:59:09.036Z,50.62
2023-04-26T18:01:37.034Z,50.73
2023-04-26T18:04:05.370Z,50.47
2023-04-26T18:06:33.745Z,51.24
2023-04-26T18:09:01.685Z,53.13
2023-04-26T18:11:31.038Z,53.71
2023-04-26T18:13:59.041Z,53.88
2023-04-26T18:16:27.218Z,54.11
2023-04-26T18:18:55.252Z,54.20
2023-04-26T18:21:23.224Z,54.74
2023-04-26T18:23:51.376Z,54.87
2023-04-26T18:26:19.366Z,55.07
2023-04-26T18:28:48.738Z,55.63
2023-04-26T18:31:16.725Z,55.31
2023-04-26T18:33:45.364Z,55.37
2023-04-26T18:36:13.352Z,55.11
2023-04-26T18:38:41.454Z,54.68
2023-04-26T18:41:09.430Z,54.93
2023-04-26T18:43:37.430Z,54.92
2023-04-26T18:46:07.193Z,54.71
2023-04-26T18:48:35.229Z,54.61
2023-04-26T18:51:03.209Z,55.05
2023-04-26T18:53:31.643Z,55.25
2023-04-26T18:55:59.970Z,55.53
2023-04-26T18:58:27.929Z,55.57
2023-04-26T19:00:55.935Z,57.02
2023-04-26T19:03:27.063Z,57.71
2023-04-26T19:05:55.321Z,57.69
2023-04-26T19:08:24.109Z,57.21
2023-04-26T19:10:52.063Z,56.92
2023-04-26T19:13:20.320Z,58.78
2023-04-26T19:15:48.567Z,58.44
2023-04-26T19:18:17.987Z,58.15
2023-04-26T19:20:47.373Z,58.16
2023-04-26T19:23:15.360Z,57.72
2023-04-26T19:25:43.292Z,57.95
2023-04-26T19:28:11.313Z,58.34
2023-04-26T19:30:39.654Z,59.06
2023-04-26T19:33:07.598Z,58.25
2023-04-26T19:35:35.779Z,58.55
2023-04-26T19:38:06.891Z,58.99
2023-04-26T19:40:34.865Z,58.97
2023-04-26T19:43:03.675Z,59.38
2023-04-26T19:45:31.936Z,59.79
2023-04-26T19:48:00.091Z,59.92
2023-04-26T19:50:28.645Z,59.33
2023-04-26T19:52:56.938Z,59.28
2023-04-26T19:55:27.796Z,60.44
2023-04-26T19:57:57.062Z,59.83
2023-04-26T20:00:25.417Z,59.63
2023-04-26T20:02:53.971Z,60.87
2023-04-26T20:05:22.259Z,60.73
2023-04-26T20:07:50.326Z,60.94
2023-04-26T20:10:18.594Z,60.86
2023-04-26T20:12:47.991Z,60.79
2023-04-26T20:15:16.317Z,60.97
2023-04-26T20:17:44.770Z,61.09
2023-04-26T20:20:13.586Z,60.96
2023-04-26T20:22:42.058Z,60.36
2023-04-26T20:25:10.557Z,61.05
2023-04-26T20:27:38.520Z,60.48
2023-04-26T20:30:09.547Z,60.70
2023-04-26T20:32:37.568Z,60.61
2023-04-26T20:35:06.032Z,60.67
2023-04-26T20:37:35.805Z,61.06
2023-04-26T20:40:05.052Z,61.16
2023-04-26T20:42:33.125Z,60.64
2023-04-26T20:45:02.306Z,60.85
2023-04-26T20:47:33.149Z,60.76
2023-04-26T20:50:05.305Z,60.75
2023-04-26T20:52:33.542Z,60.49
2023-04-26T20:55:01.495Z,60.70
2023-04-26T20:57:32.248Z,61.43
2023-04-26T21:00:00.808Z,61.47
2023-04-26T21:02:28.917Z,61.14
2023-04-26T21:04:58.353Z,61.48
2023-04-26T21:07:26.365Z,62.04
2023-04-26T21:09:54.432Z,62.46
2023-04-26T21:12:22.492Z,62.50
2023-04-26T21:14:50.734Z,62.77
2023-04-26T21:17:19.348Z,62.29
2023-04-26T21:19:47.553Z,62.25
2023-04-26T21:22:16.896Z,62.17
2023-04-26T21:24:45.039Z,62.25
2023-04-26T21:27:13.063Z,62.20
2023-04-26T21:29:41.060Z,62.14
2023-04-26T21:32:09.025Z,62.40
2023-04-26T21:34:37.707Z,62.68
2023-04-26T21:37:06.414Z,62.81
2023-04-26T21:39:35.743Z,63.14
2023-04-26T21:42:04.585Z,63.18
2023-04-26T21:44:32.564Z,64.41
2023-04-26T21:47:00.658Z,63.85
2023-04-26T21:49:28.669Z,63.83
2023-04-26T21:51:56.636Z,64.11
2023-04-26T21:54:24.810Z,64.34
2023-04-26T21:56:54.104Z,64.44
2023-04-26T21:59:22.055Z,63.94
2023-04-26T22:01:50.096Z,64.33
2023-04-26T22:04:18.218Z,64.47
2023-04-26T22:06:46.504Z,64.84
2023-04-26T22:09:14.479Z,64.98
2023-04-26T22:11:42.567Z,64.94
2023-04-26T22:14:11.962Z,64.91
2023-04-26T22:16:40.122Z,64.66
2023-04-26T22:19:08.230Z,65.08
2023-04-26T22:21:36.536Z,65.26
2023-04-26T22:24:04.789Z,66.83
2023-04-26T22:26:32.731Z,66.33
2023-04-26T22:29:00.701Z,66.50
2023-04-26T22:31:30.063Z,66.38
2023-04-26T22:33:58.143Z,66.09
2023-04-26T22:36:26.094Z,65.71
2023-04-26T22:38:54.146Z,66.04
2023-04-26T22:41:22.333Z,65.85
2023-04-26T22:43:52.132Z,65.85
2023-04-26T22:46:21.196Z,65.89
2023-04-26T22:48:50.561Z,65.59
2023-04-26T22:51:18.464Z,65.45
2023-04-26T22:53:46.414Z,66.21
2023-04-26T22:56:14.402Z,65.96
2023-04-26T22:58:42.388Z,66.20
2023-04-26T23:01:10.377Z,67.02
2023-04-26T23:03:38.519Z,67.64
2023-04-26T23:06:08.492Z,68.17
2023-04-26T23:08:36.726Z,68.34
2023-04-26T23:11:08.444Z,68.62
2023-04-26T23:13:37.194Z,68.09
2023-04-26T23:16:05.498Z,67.74
2023-04-26T23:18:34.183Z,67.07
2023-04-26T23:21:02.607Z,66.52
2023-04-26T23:23:32.068Z,67.34
2023-04-26T23:26:00.020Z,67.61
2023-04-26T23:28:27.942Z,68.10
2023-04-26T23:30:55.919Z,67.48
2023-04-26T23:33:24.166Z,68.35
2023-04-26T23:35:53.160Z,68.06
2023-04-26T23:38:21.350Z,68.04
2023-04-26T23:40:50.829Z,67.69
2023-04-26T23:43:18.797Z,67.75
2023-04-26T23:45:48.249Z,67.24
2023-04-26T23:48:17.236Z,67.18
2023-04-26T23:50:46.367Z,67.91
2023-04-26T23:53:14.309Z,68.51
2023-04-26T23:55:42.369Z,68.90
2023-04-26T23:58:11.736Z,68.50
